Time;durP1;ratioP1;P1;durP2;ratioP2;P2;SDS_P1;SDS_P2;PMS_P1;PMS_P2;Temp;Humidity;BMP_temperature;BMP_pressure;BME280_temperature;BME280_humidity;BME280_pressure;Samples;Min_cycle;Max_cycle;Signal;HPM_P1;HPM_P2
2021/08/04 00:00:22;;;;;;;0.40;0.40;;;12.50;82.60;;;;;;2057357;28;20530;-65
2021/08/04 00:01:23;;;;;;;0.50;0.50;;;12.50;82.60;;;;;;2056416;28;20182;-66
2021/08/04 00:02:24;;;;;;;1.17;0.63;;;12.60;82.80;;;;;;2055670;28;21025;-65
2021/08/04 00:03:24;;;;;;;0.60;0.60;;;12.60;82.80;;;;;;2055698;28;20202;-66
2021/08/04 00:04:25;;;;;;;0.63;0.63;;;12.60;82.80;;;;;;2056901;28;20179;-65
2021/08/04 00:05:26;;;;;;;0.60;0.60;;;12.60;83.00;;;;;;2056891;28;20190;-66
2021/08/04 00:06:27;;;;;;;0.75;0.63;;;12.60;82.90;;;;;;2056794;28;20183;-65
2021/08/04 00:07:28;;;;;;;0.50;0.50;;;12.60;82.70;;;;;;2056113;28;20176;-65
2021/08/04 00:08:29;;;;;;;0.67;0.67;;;12.70;82.50;;;;;;2057707;28;20264;-78
2021/08/04 00:09:30;;;;;;;1.90;0.60;;;12.70;81.80;;;;;;2050204;29;20191;-79
2021/08/04 00:10:31;;;;;;;1.27;0.60;;;12.70;81.60;;;;;;2042233;29;20189;-79
2021/08/04 00:11:33;;;;;;;0.85;0.65;;;12.80;81.80;;;;;;2049367;28;20172;-65
2021/08/04 00:12:34;;;;;;;0.50;0.50;;;12.80;82.00;;;;;;2063720;28;20516;-67
2021/08/04 00:13:34;;;;;;;0.73;0.73;;;12.90;82.00;;;;;;2056858;28;20179;-66
2021/08/04 00:14:35;;;;;;;0.50;0.50;;;12.90;82.00;;;;;;2056470;28;20180;-66
2021/08/04 00:15:36;;;;;;;0.80;0.80;;;12.90;82.10;;;;;;2056213;28;20447;-65
2021/08/04 00:16:37;;;;;;;0.77;0.77;;;12.90;81.00;;;;;;2056953;28;20566;-66
2021/08/04 00:17:39;;;;;;;0.63;0.60;;;12.80;81.90;;;;;;2056333;28;20175;-65
2021/08/04 00:18:40;;;;;;;0.80;0.80;;;12.80;82.60;;;;;;2048517;29;20927;-65
2021/08/04 00:19:41;;;;;;;0.87;0.87;;;12.80;82.80;;;;;;2048238;29;20199;-66
2021/08/04 00:20:42;;;;;;;0.60;0.60;;;12.80;82.60;;;;;;2057109;28;20556;-66
2021/08/04 00:21:42;;;;;;;0.70;0.70;;;12.80;82.60;;;;;;2056338;28;20179;-66
2021/08/04 00:22:44;;;;;;;0.70;0.70;;;12.90;82.40;;;;;;2056358;28;20180;-65
2021/08/04 00:23:44;;;;;;;1.67;0.98;;;12.90;82.60;;;;;;2048437;29;20675;-67
2021/08/04 00:24:45;;;;;;;2.37;0.87;;;12.90;82.60;;;;;;2048106;28;20211;-66
2021/08/04 00:25:46;;;;;;;2.43;0.80;;;12.90;82.70;;;;;;2056928;28;20518;-65
2021/08/04 00:26:47;;;;;;;0.67;0.50;;;12.90;82.50;;;;;;2056878;28;20669;-67
2021/08/04 00:27:47;;;;;;;0.47;0.37;;;12.90;81.30;;;;;;2056480;28;20191;-66
2021/08/04 00:28:48;;;;;;;0.30;0.30;;;12.80;81.90;;;;;;2056893;28;20266;-65
2021/08/04 00:29:49;;;;;;;1.53;1.00;;;12.80;82.00;;;;;;2056009;28;20211;-66
2021/08/04 00:30:49;;;;;;;0.50;0.40;;;12.80;82.20;;;;;;2056275;28;20214;-67
2021/08/04 00:31:50;;;;;;;0.50;0.50;;;12.70;82.50;;;;;;2056713;28;20631;-66
2021/08/04 00:32:54;;;;;;;0.47;0.47;;;12.70;82.90;;;;;;2055791;28;20237;-66
2021/08/04 00:33:54;;;;;;;0.28;0.28;;;12.70;83.20;;;;;;2055421;28;20206;-66
2021/08/04 00:34:55;;;;;;;0.70;0.70;;;12.60;83.40;;;;;;2056036;28;20206;-65
2021/08/04 00:35:56;;;;;;;0.50;0.50;;;12.60;83.50;;;;;;2055975;28;20246;-65
2021/08/04 00:36:56;;;;;;;0.60;0.53;;;12.70;83.50;;;;;;2056536;28;20211;-66
2021/08/04 00:37:57;;;;;;;0.57;0.57;;;12.70;83.70;;;;;;2056136;28;20675;-65
2021/08/04 00:38:58;;;;;;;0.80;0.80;;;12.70;84.00;;;;;;2056117;28;20186;-65
2021/08/04 00:39:59;;;;;;;0.60;0.60;;;12.60;84.10;;;;;;2055867;28;20187;-66
2021/08/04 00:41:00;;;;;;;0.57;0.57;;;12.70;84.00;;;;;;2056253;28;20555;-65
2021/08/04 00:42:00;;;;;;;0.97;0.87;;;12.70;84.10;;;;;;2056815;28;20171;-65
2021/08/04 00:43:01;;;;;;;0.50;0.50;;;12.70;84.30;;;;;;2056810;28;20604;-66
2021/08/04 00:44:02;;;;;;;1.27;0.80;;;12.70;84.20;;;;;;2056135;28;20182;-65
2021/08/04 00:45:04;;;;;;;0.50;0.50;;;12.70;84.20;;;;;;2056162;28;20233;-65
2021/08/04 00:46:05;;;;;;;1.10;0.80;;;12.70;84.20;;;;;;2056619;28;20185;-66
2021/08/04 00:47:06;;;;;;;1.37;1.23;;;12.60;84.50;;;;;;2056501;28;20266;-66
2021/08/04 00:48:07;;;;;;;0.73;0.73;;;12.60;84.80;;;;;;2056774;28;20182;-66
2021/08/04 00:49:10;;;;;;;1.17;1.08;;;12.60;85.00;;;;;;2056662;28;20596;-65
2021/08/04 00:50:11;;;;;;;0.60;0.52;;;12.50;85.20;;;;;;2056604;28;20183;-65
2021/08/04 00:51:12;;;;;;;1.52;0.90;;;12.60;85.10;;;;;;2056624;28;20262;-65
2021/08/04 00:52:13;;;;;;;0.70;0.43;;;12.50;85.20;;;;;;2056653;28;20664;-65
2021/08/04 00:53:26;;;;;;;0.40;0.40;;;12.60;85.40;;;;;;2056661;28;20237;-65
2021/08/04 00:54:26;;;;;;;0.50;0.47;;;12.60;84.90;;;;;;2056619;28;20257;-66
2021/08/04 00:55:28;;;;;;;0.30;0.30;;;12.60;84.30;;;;;;2056749;28;20194;-66
2021/08/04 00:56:28;;;;;;;0.60;0.60;;;12.60;84.30;;;;;;2056692;28;20273;-65
2021/08/04 00:57:29;;;;;;;0.40;0.40;;;12.50;83.70;;;;;;2056442;28;20183;-66
2021/08/04 00:58:35;;;;;;;0.50;0.50;;;12.60;84.00;;;;;;2056636;28;20179;-65
2021/08/04 00:59:36;;;;;;;0.40;0.40;;;12.50;84.30;;;;;;2056575;28;20163;-65
2021/08/04 01:00:42;;;;;;;0.68;0.68;;;12.50;84.00;;;;;;2056126;28;20181;-65
2021/08/04 01:01:59;;;;;;;0.50;0.50;;;12.60;84.10;;;;;;2056104;28;20166;-65
2021/08/04 01:03:03;;;;;;;0.50;0.50;;;12.60;84.20;;;;;;2056152;28;20167;-65
2021/08/04 01:04:11;;;;;;;0.60;0.60;;;12.60;84.30;;;;;;2056136;28;20206;-66
2021/08/04 01:05:24;;;;;;;0.50;0.47;;;12.60;84.50;;;;;;2048833;28;20742;-66
2021/08/04 01:06:37;;;;;;;0.40;0.40;;;12.60;84.60;;;;;;2056220;28;20186;-66
2021/08/04 01:08:04;;;;;;;0.55;0.55;;;12.60;84.70;;;;;;2055822;28;20206;-66
2021/08/04 01:09:07;;;;;;;0.82;0.82;;;12.50;84.90;;;;;;2056098;28;20250;-65
2021/08/04 01:10:36;;;;;;;0.55;0.55;;;12.50;85.00;;;;;;2056141;28;20238;-66
2021/08/04 01:11:40;;;;;;;0.47;0.47;;;12.50;85.30;;;;;;2051694;28;20233;-65
2021/08/04 01:13:10;;;;;;;0.70;0.57;;;12.50;85.60;;;;;;2056091;28;20677;-66
2021/08/04 01:14:19;;;;;;;0.50;0.50;;;12.60;85.00;;;;;;2055987;28;20214;-65
2021/08/04 01:15:23;;;;;;;0.47;0.47;;;12.50;84.50;;;;;;2056075;28;20201;-65
2021/08/04 01:16:27;;;;;;;0.40;0.40;;;12.50;84.40;;;;;;2055964;28;20186;-65
2021/08/04 01:17:28;;;;;;;0.50;0.30;;;12.50;84.40;;;;;;2048109;28;20191;-66
2021/08/04 01:18:36;;;;;;;0.73;0.60;;;12.60;84.40;;;;;;2056163;28;20182;-65
2021/08/04 01:20:04;;;;;;;0.70;0.70;;;12.60;84.40;;;;;;2055782;28;20202;-66
2021/08/04 01:21:08;;;;;;;1.60;0.95;;;12.60;84.40;;;;;;2047779;29;20267;-66
2021/08/04 01:22:34;;;;;;;0.70;0.70;;;12.60;84.30;;;;;;2055816;28;20187;-66
2021/08/04 01:23:52;;;;;;;0.50;0.50;;;12.60;84.30;;;;;;2056093;28;20175;-67
2021/08/04 01:25:12;;;;;;;0.57;0.57;;;12.60;83.90;;;;;;2057960;28;20280;-66
2021/08/04 01:26:38;;;;;;;0.50;0.50;;;12.70;84.20;;;;;;2058219;28;20186;-66
2021/08/04 01:27:46;;;;;;;0.77;0.77;;;12.70;84.60;;;;;;2057513;28;20167;-66
2021/08/04 01:28:49;;;;;;;0.30;0.30;;;12.70;84.30;;;;;;2050429;28;20191;-66
2021/08/04 01:29:52;;;;;;;0.60;0.60;;;12.70;84.60;;;;;;2049686;28;20184;-65
2021/08/04 01:31:03;;;;;;;0.57;0.57;;;12.70;84.40;;;;;;2049753;28;20259;-65
2021/08/04 01:32:06;;;;;;;1.73;0.73;;;12.60;84.60;;;;;;2051002;28;20168;-67
2021/08/04 01:33:07;;;;;;;0.30;0.30;;;12.60;84.20;;;;;;2049833;28;20180;-65
2021/08/04 01:34:09;;;;;;;0.30;0.30;;;12.60;84.50;;;;;;2049531;28;20254;-65
2021/08/04 01:35:10;;;;;;;0.60;0.52;;;12.70;84.30;;;;;;2057436;28;20438;-65
2021/08/04 01:36:13;;;;;;;0.25;0.25;;;12.60;84.30;;;;;;2057430;28;20203;-65
2021/08/04 01:37:14;;;;;;;0.40;0.40;;;12.70;84.30;;;;;;2057375;28;20203;-65
2021/08/04 01:38:17;;;;;;;0.20;0.20;;;12.70;83.90;;;;;;2057361;28;20171;-65
2021/08/04 01:39:20;;;;;;;4.97;0.70;;;12.70;83.50;;;;;;2057295;28;20672;-65
2021/08/04 01:40:22;;;;;;;0.45;0.45;;;12.70;83.60;;;;;;2057470;28;20179;-66
2021/08/04 01:41:23;;;;;;;0.30;0.30;;;12.70;83.60;;;;;;2058089;28;20175;-66
2021/08/04 01:42:26;;;;;;;4.45;0.50;;;12.70;83.40;;;;;;2058077;28;20679;-65
2021/08/04 01:43:28;;;;;;;0.20;0.20;;;12.70;83.60;;;;;;2057461;28;20193;-66
2021/08/04 01:44:32;;;;;;;0.57;0.57;;;12.70;83.50;;;;;;2057137;28;20572;-65
2021/08/04 01:45:33;;;;;;;0.38;0.38;;;12.70;83.70;;;;;;2042160;29;20278;-65
2021/08/04 01:46:35;;;;;;;0.38;0.38;;;12.70;84.00;;;;;;2041517;29;20202;-65
2021/08/04 01:47:37;;;;;;;0.50;0.50;;;12.60;84.00;;;;;;2041708;28;20236;-65
2021/08/04 01:48:41;;;;;;;0.25;0.25;;;12.60;84.30;;;;;;2057365;28;20577;-65
2021/08/04 01:49:43;;;;;;;0.80;0.80;;;12.50;84.60;;;;;;2057268;28;20538;-65
2021/08/04 01:50:44;;;;;;;0.68;0.68;;;12.50;85.00;;;;;;2057391;28;20642;-65
2021/08/04 01:51:46;;;;;;;0.43;0.43;;;12.50;85.30;;;;;;2057279;28;20561;-66
2021/08/04 01:52:46;;;;;;;0.57;0.57;;;12.50;85.70;;;;;;2057330;28;20265;-65
2021/08/04 01:53:47;;;;;;;0.53;0.53;;;12.50;86.00;;;;;;2049411;29;20199;-66
2021/08/04 01:54:48;;;;;;;0.57;0.57;;;12.50;85.80;;;;;;2057207;28;20251;-65
2021/08/04 01:55:49;;;;;;;0.23;0.23;;;12.50;85.40;;;;;;2057867;28;20211;-66
2021/08/04 01:56:50;;;;;;;0.50;0.50;;;12.50;85.00;;;;;;2058125;28;20910;-65
2021/08/04 01:57:51;;;;;;;0.63;0.63;;;12.50;85.30;;;;;;2064708;28;20866;-66
2021/08/04 01:58:53;;;;;;;0.57;0.57;;;12.50;86.00;;;;;;2065364;28;20182;-65
2021/08/04 01:59:53;;;;;;;0.63;0.63;;;12.50;86.00;;;;;;2065839;28;20197;-66
2021/08/04 02:00:54;;;;;;;0.97;0.87;;;12.50;85.70;;;;;;2065845;28;20202;-65
2021/08/04 02:02:15;;;;;;;0.60;0.60;;;12.50;85.50;;;;;;2065296;28;20201;-65
2021/08/04 02:03:15;;;;;;;0.43;0.43;;;12.50;85.50;;;;;;2065357;28;20193;-66
2021/08/04 02:04:16;;;;;;;0.40;0.40;;;12.50;85.80;;;;;;2065970;28;20189;-65
2021/08/04 02:05:17;;;;;;;0.93;0.40;;;12.50;85.60;;;;;;2065788;28;20195;-66
2021/08/04 02:06:46;;;;;;;0.67;0.67;;;12.50;85.00;;;;;;2065202;28;20193;-65
2021/08/04 02:08:08;;;;;;;0.20;0.20;;;12.50;85.60;;;;;;2060850;28;20183;-65
2021/08/04 02:09:22;;;;;;;0.47;0.47;;;12.50;86.30;;;;;;2065495;28;20551;-65
2021/08/04 02:10:40;;;;;;;0.70;0.60;;;12.40;86.30;;;;;;2065338;28;20177;-65
2021/08/04 02:11:52;;;;;;;0.55;0.55;;;12.40;86.60;;;;;;2059453;28;20302;-65
2021/08/04 02:13:05;;;;;;;0.30;0.30;;;12.40;87.10;;;;;;2065544;28;20520;-65
2021/08/04 02:14:36;;;;;;;0.40;0.40;;;12.40;86.90;;;;;;2065371;28;20661;-65
2021/08/04 02:15:39;;;;;;;0.40;0.40;;;12.50;86.90;;;;;;2065161;28;20213;-65
2021/08/04 02:17:01;;;;;;;0.20;0.20;;;12.50;86.70;;;;;;2065682;28;20297;-65
2021/08/04 02:18:07;;;;;;;0.30;0.30;;;12.50;86.70;;;;;;2065969;28;20550;-65
2021/08/04 02:19:20;;;;;;;0.40;0.40;;;12.50;86.90;;;;;;2065271;28;20164;-65
2021/08/04 02:20:38;;;;;;;0.38;0.38;;;12.40;86.00;;;;;;2065484;28;20198;-65
2021/08/04 02:21:42;;;;;;;0.40;0.40;;;12.40;85.80;;;;;;2065838;28;20169;-65
2021/08/04 02:22:53;;;;;;;0.20;0.20;;;12.40;85.90;;;;;;2065133;28;20209;-65
2021/08/04 02:23:54;;;;;;;0.35;0.35;;;12.40;85.90;;;;;;2065185;28;20585;-66
2021/08/04 02:25:12;;;;;;;0.60;0.60;;;12.40;85.90;;;;;;2056950;28;20218;-65
2021/08/04 02:26:16;;;;;;;0.30;0.30;;;12.40;85.70;;;;;;2051436;28;20183;-65
2021/08/04 02:27:18;;;;;;;1.35;1.25;;;12.50;85.40;;;;;;2057352;28;20183;-65
2021/08/04 02:28:27;;;;;;;0.50;0.50;;;12.50;85.30;;;;;;2065033;28;20186;-65
2021/08/04 02:29:33;;;;;;;0.50;0.50;;;12.50;85.20;;;;;;2065098;28;20174;-66
2021/08/04 02:30:35;;;;;;;1.15;1.05;;;12.60;85.30;;;;;;2065038;28;20565;-66
2021/08/04 02:31:36;;;;;;;0.40;0.20;;;12.50;85.60;;;;;;2065005;28;20237;-66
2021/08/04 02:32:39;;;;;;;0.55;0.50;;;12.50;85.90;;;;;;2056860;28;20262;-66
2021/08/04 02:33:41;;;;;;;0.30;0.30;;;12.50;86.70;;;;;;2057265;28;20183;-66
2021/08/04 02:34:42;;;;;;;1.10;0.77;;;12.50;86.70;;;;;;2056985;28;20234;-65
2021/08/04 02:35:43;;;;;;;0.70;0.70;;;12.40;86.30;;;;;;2056625;28;20214;-65
2021/08/04 02:36:44;;;;;;;0.37;0.37;;;12.40;86.10;;;;;;2056954;28;20656;-65
2021/08/04 02:37:45;;;;;;;0.53;0.53;;;12.50;86.30;;;;;;2064894;28;20179;-65
2021/08/04 02:38:47;;;;;;;0.77;0.77;;;12.40;86.50;;;;;;2064803;28;20175;-65
2021/08/04 02:39:48;;;;;;;0.40;0.40;;;12.40;86.80;;;;;;2064844;28;20624;-66
2021/08/04 02:40:50;;;;;;;0.20;0.20;;;12.40;86.80;;;;;;2064792;28;20179;-65
2021/08/04 02:41:51;;;;;;;0.40;0.40;;;12.50;86.20;;;;;;2064999;28;20566;-65
2021/08/04 02:42:54;;;;;;;0.40;0.40;;;12.50;85.50;;;;;;2056956;28;20187;-65
2021/08/04 02:43:55;;;;;;;0.45;0.45;;;12.50;85.20;;;;;;2064890;28;20560;-66
2021/08/04 02:44:56;;;;;;;1.13;0.93;;;12.50;85.00;;;;;;2065596;28;20440;-66
2021/08/04 02:45:58;;;;;;;0.50;0.50;;;12.50;85.30;;;;;;2065499;28;20186;-65
2021/08/04 02:46:59;;;;;;;1.05;0.40;;;12.50;85.50;;;;;;2065373;28;20186;-66
2021/08/04 02:48:00;;;;;;;0.30;0.30;;;12.50;85.60;;;;;;2065372;28;20182;-66
2021/08/04 02:49:01;;;;;;;0.87;0.70;;;12.50;85.70;;;;;;2065374;28;20265;-66
2021/08/04 02:50:06;;;;;;;0.50;0.50;;;12.50;86.10;;;;;;2065441;28;20591;-66
2021/08/04 02:51:12;;;;;;;0.45;0.45;;;12.50;87.90;;;;;;2065421;28;20178;-65
2021/08/04 02:52:17;;;;;;;0.35;0.35;;;12.50;86.60;;;;;;2064878;28;20254;-66
2021/08/04 02:53:19;;;;;;;0.50;0.50;;;12.50;87.00;;;;;;2064816;28;20270;-65
2021/08/04 02:54:20;;;;;;;0.38;0.38;;;12.50;87.00;;;;;;2056942;28;20183;-66
2021/08/04 02:55:23;;;;;;;0.97;0.77;;;12.50;87.30;;;;;;2060697;28;20591;-65
2021/08/04 02:56:25;;;;;;;0.75;0.75;;;12.50;87.40;;;;;;2065400;28;20202;-66
2021/08/04 02:57:26;;;;;;;0.73;0.73;;;12.40;87.90;;;;;;2065096;28;20304;-66
2021/08/04 02:58:28;;;;;;;0.60;0.60;;;12.30;88.50;;;;;;2065385;28;20187;-66
2021/08/04 02:59:29;;;;;;;0.40;0.40;;;12.30;88.80;;;;;;2065140;28;20548;-65
2021/08/04 03:00:29;;;;;;;0.30;0.30;;;12.30;88.50;;;;;;2065516;28;20179;-65
2021/08/04 03:01:30;;;;;;;0.40;0.40;;;12.30;88.00;;;;;;2065373;28;20430;-65
2021/08/04 03:02:32;;;;;;;0.60;0.60;;;12.30;88.10;;;;;;2065330;28;20210;-66
2021/08/04 03:03:34;;;;;;;0.63;0.63;;;12.30;89.20;;;;;;2064856;28;20182;-65
2021/08/04 03:04:35;;;;;;;1.05;0.98;;;12.30;89.30;;;;;;2064770;28;20638;-65
2021/08/04 03:05:36;;;;;;;0.33;0.33;;;12.30;89.50;;;;;;2064760;28;20210;-65
2021/08/04 03:06:37;;;;;;;0.50;0.50;;;12.30;89.40;;;;;;2056748;28;20190;-65
2021/08/04 03:07:37;;;;;;;0.30;0.30;;;12.20;89.20;;;;;;2064596;28;20520;-65
2021/08/04 03:08:38;;;;;;;0.67;0.67;;;12.30;89.20;;;;;;2065340;28;20170;-65
2021/08/04 03:09:39;;;;;;;0.65;0.45;;;12.30;89.10;;;;;;2064521;28;20201;-65
2021/08/04 03:10:40;;;;;;;0.57;0.57;;;12.30;89.20;;;;;;2064729;28;20193;-65
2021/08/04 03:11:40;;;;;;;0.30;0.30;;;12.30;89.30;;;;;;2064845;28;20183;-65
2021/08/04 03:12:41;;;;;;;0.40;0.40;;;12.30;89.30;;;;;;2064813;28;20179;-65
2021/08/04 03:13:42;;;;;;;0.40;0.40;;;12.30;90.30;;;;;;2065466;28;20182;-65
2021/08/04 03:14:43;;;;;;;0.60;0.60;;;12.30;89.30;;;;;;2065287;28;20237;-65
2021/08/04 03:15:43;;;;;;;0.40;0.40;;;12.30;89.10;;;;;;2064641;28;20190;-65
2021/08/04 03:16:45;;;;;;;0.40;0.40;;;12.30;88.80;;;;;;2064694;28;20221;-65
2021/08/04 03:17:45;;;;;;;0.40;0.40;;;12.30;89.10;;;;;;2065180;28;20179;-66
2021/08/04 03:18:46;;;;;;;0.60;0.60;;;12.30;89.10;;;;;;2065360;28;20611;-66
2021/08/04 03:19:47;;;;;;;0.47;0.47;;;12.30;89.20;;;;;;2065295;28;20178;-64
2021/08/04 03:20:47;;;;;;;0.33;0.33;;;12.30;89.40;;;;;;2065220;28;20664;-65
2021/08/04 03:21:48;;;;;;;0.30;0.30;;;12.30;89.50;;;;;;2065255;28;20237;-65
2021/08/04 03:22:49;;;;;;;0.30;0.30;;;12.30;89.30;;;;;;2064735;28;20493;-65
2021/08/04 03:23:50;;;;;;;0.45;0.45;;;12.30;89.10;;;;;;2064676;28;20213;-66
2021/08/04 03:24:51;;;;;;;0.33;0.33;;;12.30;89.10;;;;;;2065313;28;20218;-65
2021/08/04 03:25:52;;;;;;;0.77;0.77;;;12.30;89.30;;;;;;2065341;28;20633;-65
2021/08/04 03:26:52;;;;;;;0.70;0.70;;;12.30;89.30;;;;;;2064790;28;20179;-66
2021/08/04 03:27:53;;;;;;;0.77;0.77;;;12.30;89.60;;;;;;2065072;28;20555;-65
2021/08/04 03:28:54;;;;;;;0.50;0.50;;;12.30;90.30;;;;;;2065107;28;20376;-65
2021/08/04 03:29:54;;;;;;;1.03;1.00;;;12.20;89.60;;;;;;2064388;28;20200;-65
2021/08/04 03:30:55;;;;;;;2.13;0.83;;;12.20;90.00;;;;;;2064427;28;20250;-65
2021/08/04 03:31:56;;;;;;;0.40;0.40;;;12.20;89.90;;;;;;2065043;28;20178;-65
2021/08/04 03:32:56;;;;;;;0.53;0.53;;;12.20;89.80;;;;;;2064975;28;20576;-65
2021/08/04 03:33:57;;;;;;;0.40;0.40;;;12.20;89.60;;;;;;2065025;28;20237;-65
2021/08/04 03:34:58;;;;;;;0.50;0.50;;;12.20;89.50;;;;;;2064925;28;20202;-65
2021/08/04 03:35:59;;;;;;;1.43;0.93;;;12.20;89.60;;;;;;2064978;28;20210;-65
2021/08/04 03:36:59;;;;;;;0.60;0.60;;;12.20;89.80;;;;;;2064703;28;20205;-65
2021/08/04 03:38:00;;;;;;;0.50;0.50;;;12.20;90.00;;;;;;2065112;28;20182;-65
2021/08/04 03:39:01;;;;;;;0.50;0.50;;;12.20;90.00;;;;;;2064957;28;20253;-65
2021/08/04 03:40:03;;;;;;;0.40;0.33;;;12.20;90.00;;;;;;2064918;28;20623;-66
2021/08/04 03:41:04;;;;;;;0.50;0.50;;;12.30;89.80;;;;;;2064349;28;20245;-65
2021/08/04 03:42:05;;;;;;;0.40;0.40;;;12.20;89.90;;;;;;2064330;28;20170;-66
2021/08/04 03:43:06;;;;;;;0.50;0.50;;;12.20;89.60;;;;;;2064362;28;20178;-64
2021/08/04 03:44:06;;;;;;;0.70;0.70;;;12.20;89.70;;;;;;2065020;28;20341;-66
2021/08/04 03:45:08;;;;;;;0.40;0.40;;;12.20;89.90;;;;;;2064853;28;20202;-65
2021/08/04 03:46:09;;;;;;;0.65;0.65;;;12.20;90.30;;;;;;2064792;28;20175;-64
2021/08/04 03:47:10;;;;;;;0.93;0.87;;;12.10;90.30;;;;;;2064019;28;20235;-65
2021/08/04 03:48:10;;;;;;;0.53;0.40;;;12.10;90.30;;;;;;2064855;28;20708;-66
2021/08/04 03:49:11;;;;;;;0.53;0.53;;;12.10;90.40;;;;;;2064737;28;20187;-66
2021/08/04 03:50:12;;;;;;;0.47;0.47;;;12.10;90.30;;;;;;2064862;28;20185;-65
2021/08/04 03:51:13;;;;;;;3.28;1.08;;;12.10;90.20;;;;;;2064175;28;20179;-65
2021/08/04 03:52:14;;;;;;;0.57;0.57;;;12.00;90.30;;;;;;2064404;28;20187;-65
2021/08/04 03:53:14;;;;;;;0.33;0.33;;;12.00;90.50;;;;;;2064765;28;20178;-66
2021/08/04 03:54:15;;;;;;;2.70;0.73;;;12.00;90.80;;;;;;2064323;28;20178;-66
2021/08/04 03:55:16;;;;;;;0.40;0.40;;;12.00;90.80;;;;;;2064154;28;20649;-65
2021/08/04 03:56:17;;;;;;;0.40;0.40;;;12.00;90.90;;;;;;2064308;28;20174;-66
2021/08/04 03:57:17;;;;;;;0.63;0.63;;;12.00;91.00;;;;;;2062353;28;20301;-65
2021/08/04 03:58:18;;;;;;;0.63;0.63;;;12.00;91.00;;;;;;2058119;28;20183;-65
2021/08/04 03:59:19;;;;;;;0.53;0.53;;;11.90;90.90;;;;;;2056673;28;20171;-65
2021/08/04 04:00:20;;;;;;;0.30;0.30;;;12.00;91.00;;;;;;2056847;28;20238;-66
2021/08/04 04:01:20;;;;;;;0.50;0.50;;;12.00;91.00;;;;;;2056249;28;20298;-66
2021/08/04 04:02:21;;;;;;;0.70;0.70;;;11.90;91.10;;;;;;2056204;28;20206;-65
2021/08/04 04:03:22;;;;;;;0.80;0.80;;;11.90;91.10;;;;;;2048210;29;20175;-65
2021/08/04 04:04:22;;;;;;;0.80;0.70;;;11.90;91.10;;;;;;2048108;29;20687;-66
2021/08/04 04:05:23;;;;;;;0.43;0.43;;;11.90;91.00;;;;;;2056784;28;20171;-65
2021/08/04 04:06:24;;;;;;;0.40;0.40;;;11.90;91.00;;;;;;2056805;28;20245;-65
2021/08/04 04:07:24;;;;;;;0.43;0.43;;;12.00;90.90;;;;;;2056161;28;20286;-65
2021/08/04 04:08:25;;;;;;;0.27;0.27;;;12.00;90.80;;;;;;2056127;28;20194;-65
2021/08/04 04:09:31;;;;;;;0.50;0.50;;;12.00;90.80;;;;;;2056093;28;20190;-66
2021/08/04 04:10:32;;;;;;;0.73;0.73;;;12.00;90.70;;;;;;2056345;28;20167;-64
2021/08/04 04:11:33;;;;;;;0.20;0.20;;;12.00;90.70;;;;;;2056927;28;20194;-65
2021/08/04 04:12:34;;;;;;;5.43;0.80;;;12.00;90.60;;;;;;2056890;28;20277;-65
2021/08/04 04:13:34;;;;;;;0.60;0.60;;;12.10;90.60;;;;;;2056941;28;20210;-66
2021/08/04 04:14:35;;;;;;;0.50;0.50;;;12.10;90.60;;;;;;2056663;28;20426;-65
2021/08/04 04:15:36;;;;;;;0.80;0.80;;;12.10;90.60;;;;;;2056896;28;20564;-65
2021/08/04 04:16:37;;;;;;;0.33;0.33;;;12.10;90.50;;;;;;2056694;28;20210;-66
2021/08/04 04:17:38;;;;;;;0.40;0.40;;;12.10;90.60;;;;;;2055969;28;20195;-66
2021/08/04 04:18:38;;;;;;;1.93;0.40;;;12.10;90.70;;;;;;2056081;28;20171;-65
2021/08/04 04:19:39;;;;;;;1.10;0.60;;;12.00;90.80;;;;;;2056580;28;20179;-65
2021/08/04 04:20:40;;;;;;;0.40;0.40;;;12.00;90.80;;;;;;2056575;28;20214;-65
2021/08/04 04:21:40;;;;;;;0.47;0.47;;;12.00;90.70;;;;;;2056635;28;20186;-65
2021/08/04 04:22:44;;;;;;;0.57;0.50;;;12.10;90.70;;;;;;2056599;28;20712;-66
2021/08/04 04:23:45;;;;;;;0.47;0.47;;;12.00;90.70;;;;;;2056082;28;20177;-66
2021/08/04 04:24:46;;;;;;;0.50;0.50;;;12.10;90.70;;;;;;2055928;28;20733;-65
2021/08/04 04:25:46;;;;;;;0.73;0.70;;;12.10;90.60;;;;;;2056127;28;20182;-65
2021/08/04 04:26:47;;;;;;;0.40;0.40;;;12.10;90.60;;;;;;2055977;28;20208;-65
2021/08/04 04:27:48;;;;;;;0.63;0.63;;;12.10;90.60;;;;;;2055975;28;20194;-65
2021/08/04 04:28:49;;;;;;;0.95;0.95;;;12.10;90.80;;;;;;2055967;28;20214;-65
2021/08/04 04:29:50;;;;;;;0.30;0.30;;;12.10;90.80;;;;;;2056514;28;20299;-66
2021/08/04 04:30:50;;;;;;;1.70;0.80;;;12.00;90.80;;;;;;2056536;28;20262;-64
2021/08/04 04:31:51;;;;;;;0.50;0.50;;;12.00;90.80;;;;;;2056606;28;20182;-66
2021/08/04 04:32:51;;;;;;;0.50;0.50;;;12.00;90.90;;;;;;2056695;28;20237;-66
2021/08/04 04:33:52;;;;;;;1.07;0.97;;;12.10;91.00;;;;;;2055994;28;20271;-66
2021/08/04 04:34:53;;;;;;;0.57;0.57;;;12.10;90.90;;;;;;2055872;28;20209;-65
2021/08/04 04:35:55;;;;;;;0.50;0.50;;;12.10;90.90;;;;;;2056508;28;20266;-66
2021/08/04 04:36:56;;;;;;;0.90;0.70;;;12.00;91.20;;;;;;2056394;28;20293;-65
2021/08/04 04:37:56;;;;;;;0.93;0.67;;;12.00;91.20;;;;;;2056562;28;20183;-65
2021/08/04 04:38:57;;;;;;;0.40;0.40;;;12.00;91.00;;;;;;2056501;28;20241;-66
2021/08/04 04:39:58;;;;;;;0.90;0.87;;;12.00;91.00;;;;;;2056409;28;20657;-66
2021/08/04 04:40:58;;;;;;;0.70;0.70;;;12.00;91.00;;;;;;2055916;28;20179;-65
2021/08/04 04:41:59;;;;;;;0.70;0.70;;;12.00;91.00;;;;;;2055933;28;20175;-66
2021/08/04 04:43:00;;;;;;;0.67;0.60;;;12.00;91.00;;;;;;2055955;28;20182;-66
2021/08/04 04:44:01;;;;;;;0.30;0.30;;;12.10;91.00;;;;;;2055924;28;20293;-65
2021/08/04 04:45:01;;;;;;;0.70;0.60;;;12.10;90.90;;;;;;2056644;28;20581;-65
2021/08/04 04:46:03;;;;;;;0.37;0.37;;;12.10;90.90;;;;;;2056433;28;20665;-66
2021/08/04 04:47:04;;;;;;;0.73;0.73;;;12.10;90.70;;;;;;2056420;28;20210;-66
2021/08/04 04:48:05;;;;;;;0.65;0.65;;;12.20;90.70;;;;;;2056437;28;20209;-66
2021/08/04 04:49:05;;;;;;;0.50;0.50;;;12.20;90.60;;;;;;2056449;28;20179;-65
2021/08/04 04:50:06;;;;;;;0.93;0.50;;;12.20;90.60;;;;;;2056342;28;20190;-66
2021/08/04 04:51:08;;;;;;;0.65;0.65;;;12.30;90.50;;;;;;2056342;28;20183;-66
2021/08/04 04:52:08;;;;;;;0.60;0.60;;;12.20;90.70;;;;;;2056470;28;20233;-65
2021/08/04 04:53:09;;;;;;;0.53;0.53;;;12.20;90.80;;;;;;2056458;28;20646;-65
2021/08/04 04:54:10;;;;;;;0.73;0.73;;;12.30;90.80;;;;;;2055943;28;20250;-66
2021/08/04 04:55:12;;;;;;;0.70;0.70;;;12.30;90.70;;;;;;2055816;28;20559;-65
2021/08/04 04:56:13;;;;;;;0.50;0.50;;;12.30;90.50;;;;;;2054106;28;20253;-66
2021/08/04 04:57:14;;;;;;;0.53;0.53;;;12.30;90.50;;;;;;2055415;28;20207;-65
2021/08/04 04:58:15;;;;;;;0.77;0.77;;;12.40;90.60;;;;;;2064370;28;20526;-65
2021/08/04 04:59:15;;;;;;;0.77;0.77;;;12.40;91.00;;;;;;2066463;28;20631;-66
2021/08/04 05:00:16;;;;;;;0.57;0.50;;;12.40;90.40;;;;;;2058961;28;20171;-66
2021/08/04 05:01:17;;;;;;;0.53;0.53;;;12.40;90.30;;;;;;2058321;28;20183;-66
2021/08/04 05:02:18;;;;;;;0.83;0.63;;;12.40;90.50;;;;;;2058333;28;20513;-65
2021/08/04 05:03:18;;;;;;;0.87;0.87;;;12.40;90.60;;;;;;2058987;28;20210;-66
2021/08/04 05:04:19;;;;;;;0.97;0.70;;;12.40;90.60;;;;;;2058424;28;20175;-65
2021/08/04 05:05:20;;;;;;;2.27;0.67;;;12.40;90.60;;;;;;2058374;28;20190;-65
2021/08/04 05:06:20;;;;;;;0.40;0.40;;;12.50;90.40;;;;;;2058951;28;20167;-65
2021/08/04 05:07:21;;;;;;;0.43;0.43;;;12.50;90.30;;;;;;2058924;28;20713;-66
2021/08/04 05:08:22;;;;;;;0.30;0.30;;;12.50;90.20;;;;;;2058828;28;20182;-65
2021/08/04 05:09:22;;;;;;;0.40;0.40;;;12.60;90.00;;;;;;2059069;28;20504;-66
2021/08/04 05:10:23;;;;;;;0.80;0.80;;;12.60;89.90;;;;;;2058298;28;20186;-65
2021/08/04 05:11:24;;;;;;;0.70;0.70;;;12.70;89.50;;;;;;2058475;28;20194;-66
2021/08/04 05:12:25;;;;;;;0.73;0.73;;;12.70;88.90;;;;;;2058924;28;20302;-66
2021/08/04 05:13:25;;;;;;;0.53;0.53;;;12.70;89.00;;;;;;2058973;28;20193;-66
2021/08/04 05:14:26;;;;;;;1.30;0.87;;;12.70;89.40;;;;;;2058208;28;20189;-65
2021/08/04 05:15:27;;;;;;;0.73;0.73;;;12.60;89.80;;;;;;2058434;28;20752;-65
2021/08/04 05:16:27;;;;;;;0.47;0.47;;;12.60;89.80;;;;;;2058964;28;20178;-65
2021/08/04 05:17:28;;;;;;;0.83;0.63;;;12.60;90.10;;;;;;2058841;28;20203;-65
2021/08/04 05:18:29;;;;;;;0.80;0.50;;;12.60;90.00;;;;;;2058174;28;20189;-66
2021/08/04 05:19:29;;;;;;;2.23;0.80;;;12.60;89.60;;;;;;2058274;28;20171;-66
2021/08/04 05:20:30;;;;;;;0.80;0.47;;;12.70;89.60;;;;;;2059002;28;20218;-65
2021/08/04 05:21:31;;;;;;;1.00;0.97;;;12.70;89.30;;;;;;2059003;28;20272;-65
2021/08/04 05:22:32;;;;;;;0.73;0.73;;;12.80;89.10;;;;;;2059051;28;20191;-66
2021/08/04 05:23:32;;;;;;;0.60;0.60;;;12.80;88.80;;;;;;2058983;28;20182;-65
2021/08/04 05:24:33;;;;;;;0.70;0.70;;;13.00;88.20;;;;;;2058239;28;20249;-65
2021/08/04 05:25:37;;;;;;;0.40;0.40;;;13.00;88.10;;;;;;2058348;28;20201;-65
2021/08/04 05:26:37;;;;;;;1.27;0.93;;;13.00;88.50;;;;;;2058453;28;20237;-66
2021/08/04 05:27:38;;;;;;;0.80;0.80;;;13.10;88.50;;;;;;2058190;28;20234;-66